Time;durP1;ratioP1;P1;durP2;ratioP2;P2;SDS_P1;SDS_P2;PMS_P1;PMS_P2;Temp;Humidity;BMP_temperature;BMP_pressure;BME280_temperature;BME280_humidity;BME280_pressure;Samples;Min_cycle;Max_cycle;Signal;HPM_P1;HPM_P2
2023/02/03 00:02:20;;;;;;;;;;;;;;;;;;8119389;28;27624;-77
2023/02/03 00:06:20;;;;;;;;;;;;;;;;;;8124238;28;27247;-77
2023/02/03 00:10:20;;;;;;;;;;;;;;;;;;8123629;28;27315;-77
2023/02/03 00:14:21;;;;;;;;;;;;;;;;;;8119530;28;27150;-77
2023/02/03 00:18:21;;;;;;;;;;;;;;;;;;8117864;28;27941;-79
2023/02/03 00:22:21;;;;;;;;;;;;;;;;;;8102693;28;29698;-76
2023/02/03 00:26:22;;;;;;;;;;;;;;;;;;8124062;28;27960;-78
2023/02/03 00:30:22;;;;;;;;;;;;;;;;;;8119545;28;27495;-76
2023/02/03 00:34:23;;;;;;;;;;;;;;;;;;8121196;28;27313;-77
2023/02/03 00:38:23;;;;;;;;;;;;;;;;;;8122763;28;31898;-77
2023/02/03 00:42:23;;;;;;;;;;;;;;;;;;8116187;28;28021;-77
2023/02/03 00:46:23;;;;;;;;;;;;;;;;;;8118328;28;27417;-76
2023/02/03 00:50:23;;;;;;;;;;;;;;;;;;8113195;28;28733;-76
2023/02/03 00:54:23;;;;;;;;;;;;;;;;;;8113765;28;27456;-77
2023/02/03 00:58:23;;;;;;;;;;;;;;;;;;8122679;28;27319;-77
2023/02/03 01:02:23;;;;;;;;;;;;;;;;;;8124299;28;27440;-77
2023/02/03 01:06:23;;;;;;;;;;;;;;;;;;8119113;28;27716;-77
2023/02/03 01:10:23;;;;;;;;;;;;;;;;;;8118966;28;28001;-77
2023/02/03 01:14:24;;;;;;;;;;;;;;;;;;8120555;28;27534;-78
2023/02/03 01:18:24;;;;;;;;;;;;;;;;;;8123288;28;27323;-78
2023/02/03 01:22:24;;;;;;;;;;;;;;;;;;8120111;28;27295;-77
2023/02/03 01:26:24;;;;;;;;;;;;;;;;;;8123841;28;27283;-78
2023/02/03 01:30:24;;;;;;;;;;;;;;;;;;8123236;28;28177;-79
2023/02/03 01:34:24;;;;;;;;;;;;;;;;;;8119752;28;27354;-78
2023/02/03 01:38:24;;;;;;;;;;;;;;;;;;8118845;28;29530;-77
2023/02/03 01:42:24;;;;;;;;;;;;;;;;;;8122773;28;27534;-76
2023/02/03 01:46:24;;;;;;;;;;;;;;;;;;8121506;28;28021;-78
2023/02/03 01:50:24;;;;;;;;;;;;;;;;;;8125895;28;27336;-79
2023/02/03 01:54:25;;;;;;;;;;;;;;;;;;8116172;28;27456;-79
2023/02/03 01:58:25;;;;;;;;;;;;;;;;;;8121132;28;27715;-79
2023/02/03 02:02:25;;;;;;;;;;;;;;;;;;8120380;28;27487;-78
2023/02/03 02:06:25;;;;;;;;;;;;;;;;;;8119198;28;28362;-79
2023/02/03 02:10:25;;;;;;;;;;;;;;;;;;8123999;28;28958;-78
2023/02/03 02:14:25;;;;;;;;;;;;;;;;;;8115045;28;27163;-79
2023/02/03 02:18:25;;;;;;;;;;;;;;;;;;8125291;28;27211;-77
2023/02/03 02:22:25;;;;;;;;;;;;;;;;;;8118833;28;27672;-76
2023/02/03 02:26:25;;;;;;;;;;;;;;;;;;8118844;28;28055;-76
2023/02/03 02:30:26;;;;;;;;;;;;;;;;;;8116481;28;27287;-76
2023/02/03 02:34:26;;;;;;;;;;;;;;;;;;8125930;28;27694;-77
2023/02/03 02:38:26;;;;;;;;;;;;;;;;;;8118511;28;27273;-77
2023/02/03 02:42:26;;;;;;;;;;;;;;;;;;8116129;28;28828;-76
2023/02/03 02:46:26;;;;;;;;;;;;;;;;;;8115370;28;27536;-77
2023/02/03 02:50:26;;;;;;;;;;;;;;;;;;8119463;28;28182;-79
2023/02/03 02:54:26;;;;;;;;;;;;;;;;;;8115630;28;28981;-79
2023/02/03 02:58:26;;;;;;;;;;;;;;;;;;8116369;28;27339;-76
2023/02/03 03:02:26;;;;;;;;;;;;;;;;;;8118219;28;28861;-78
2023/02/03 03:06:26;;;;;;;;;;;;;;;;;;8123501;28;28786;-79
2023/02/03 03:10:26;;;;;;;;;;;;;;;;;;8111015;28;29779;-78
2023/02/03 03:14:27;;;;;;;;;;;;;;;;;;8120156;28;27400;-75
2023/02/03 03:18:27;;;;;;;;;;;;;;;;;;8120083;28;27243;-77
2023/02/03 03:22:27;;;;;;;;;;;;;;;;;;8122704;28;27593;-78
2023/02/03 03:26:27;;;;;;;;;;;;;;;;;;8124843;28;28266;-78
2023/02/03 03:30:27;;;;;;;;;;;;;;;;;;8122595;28;28041;-78
2023/02/03 03:34:27;;;;;;;;;;;;;;;;;;8121331;28;27799;-76
2023/02/03 03:38:30;;;;;;;;;;;;;;;;;;8129413;28;27649;-76
2023/02/03 03:42:30;;;;;;;;;;;;;;;;;;8124226;28;27081;-77
2023/02/03 03:46:30;;;;;;;;;;;;;;;;;;8126464;28;28101;-78
2023/02/03 03:50:31;;;;;;;;;;;;;;;;;;8121873;28;27235;-79
2023/02/03 03:54:31;;;;;;;;;;;;;;;;;;8124826;28;29014;-78
2023/02/03 03:58:31;;;;;;;;;;;;;;;;;;8120793;28;27765;-77
2023/02/03 04:02:31;;;;;;;;;;;;;;;;;;8121999;28;27552;-76
2023/02/03 04:06:31;;;;;;;;;;;;;;;;;;8124171;28;28166;-78
2023/02/03 04:10:31;;;;;;;;;;;;;;;;;;8123830;28;27593;-77
2023/02/03 04:14:31;;;;;;;;;;;;;;;;;;8123197;28;27279;-77
2023/02/03 04:18:31;;;;;;;;;;;;;;;;;;8126428;28;28277;-78
2023/02/03 04:22:31;;;;;;;;;;;;;;;;;;8124727;28;27569;-77
2023/02/03 04:26:31;;;;;;;;;;;;;;;;;;8122785;28;28759;-78
2023/02/03 04:30:33;;;;;;;;;;;;;;;;;;8122608;28;48649;-77
2023/02/03 04:34:33;;;;;;;;;;;;;;;;;;8123460;28;27309;-77
2023/02/03 04:38:33;;;;;;;;;;;;;;;;;;8119373;28;27272;-78
2023/02/03 04:42:34;;;;;;;;;;;;;;;;;;8124055;28;27615;-76
2023/02/03 04:46:34;;;;;;;;;;;;;;;;;;8118843;28;27627;-77
2023/02/03 04:50:34;;;;;;;;;;;;;;;;;;8121604;28;27492;-79
2023/02/03 04:54:34;;;;;;;;;;;;;;;;;;8120290;28;27240;-78
2023/02/03 04:58:34;;;;;;;;;;;;;;;;;;8123912;28;27879;-77
2023/02/03 05:02:34;;;;;;;;;;;;;;;;;;8119646;28;27191;-77
2023/02/03 05:06:34;;;;;;;;;;;;;;;;;;8116436;28;28165;-78
2023/02/03 05:10:34;;;;;;;;;;;;;;;;;;8126430;28;27149;-79
2023/02/03 05:14:34;;;;;;;;;;;;;;;;;;8122962;28;28726;-79
2023/02/03 05:18:34;;;;;;;;;;;;;;;;;;8124146;28;28453;-76
2023/02/03 05:22:35;;;;;;;;;;;;;;;;;;8123222;28;27878;-78
2023/02/03 05:26:35;;;;;;;;;;;;;;;;;;8119620;28;27793;-76
2023/02/03 05:30:35;;;;;;;;;;;;;;;;;;8117382;28;27951;-77
2023/02/03 05:34:35;;;;;;;;;;;;;;;;;;8115134;28;27575;-77
2023/02/03 05:38:35;;;;;;;;;;;;;;;;;;8121399;28;27412;-77
2023/02/03 05:42:35;;;;;;;;;;;;;;;;;;8121854;28;27702;-78
2023/02/03 05:46:35;;;;;;;;;;;;;;;;;;8122317;28;28762;-79
2023/02/03 05:50:35;;;;;;;;;;;;;;;;;;8117731;28;27337;-76
2023/02/03 05:54:35;;;;;;;;;;;;;;;;;;8121182;28;28090;-78
2023/02/03 05:58:35;;;;;;;;;;;;;;;;;;8122138;28;27934;-78
2023/02/03 06:02:35;;;;;;;;;;;;;;;;;;8120700;28;27768;-77
2023/02/03 06:06:36;;;;;;;;;;;;;;;;;;8117432;28;27574;-77
2023/02/03 06:10:36;;;;;;;;;;;;;;;;;;8121073;28;29087;-77
2023/02/03 06:14:36;;;;;;;;;;;;;;;;;;8124802;28;27457;-80
2023/02/03 06:18:36;;;;;;;;;;;;;;;;;;8116155;28;27843;-80
2023/02/03 06:22:36;;;;;;;;;;;;;;;;;;8121321;28;27432;-78
2023/02/03 06:26:36;;;;;;;;;;;;;;;;;;8124040;28;29952;-79
2023/02/03 06:30:36;;;;;;;;;;;;;;;;;;8115724;28;27261;-77
2023/02/03 06:34:36;;;;;;;;;;;;;;;;;;8119492;28;27773;-78
2023/02/03 06:38:36;;;;;;;;;;;;;;;;;;8118834;28;28516;-77
2023/02/03 06:42:36;;;;;;;;;;;;;;;;;;8120449;28;29972;-78
2023/02/03 06:46:36;;;;;;;;;;;;;;;;;;8127472;28;27739;-78
2023/02/03 06:50:36;;;;;;;;;;;;;;;;;;8123884;28;28052;-78
2023/02/03 06:54:37;;;;;;;;;;;;;;;;;;8124544;28;27280;-76
2023/02/03 06:58:37;;;;;;;;;;;;;;;;;;8125200;28;27174;-76
2023/02/03 07:02:37;;;;;;;;;;;;;;;;;;8131825;28;27427;-78
2023/02/03 07:06:37;;;;;;;;;;;;;;;;;;8134871;28;28718;-76
2023/02/03 07:10:37;;;;;;;;;;;;;;;;;;8120683;28;27436;-78
2023/02/03 07:14:38;;;;;;;;;;;;;;;;;;8130298;28;27567;-79
2023/02/03 07:18:38;;;;;;;;;;;;;;;;;;8128663;28;27556;-77
2023/02/03 07:22:41;;;;;;;;;;;;;;;;;;8124969;28;27239;-77
2023/02/03 07:26:41;;;;;;;;;;;;;;;;;;8119384;28;27844;-77
2023/02/03 07:30:41;;;;;;;;;;;;;;;;;;8123387;28;28431;-78
2023/02/03 07:34:41;;;;;;;;;;;;;;;;;;8124590;28;28181;-78
2023/02/03 07:38:41;;;;;;;;;;;;;;;;;;8122733;28;27056;-77
2023/02/03 07:42:41;;;;;;;;;;;;;;;;;;8123860;28;27107;-77
2023/02/03 07:46:43;;;;;;;;;;;;;;;;;;8127762;28;27224;-77
2023/02/03 07:50:44;;;;;;;;;;;;;;;;;;8119532;28;27215;-77
2023/02/03 07:54:44;;;;;;;;;;;;;;;;;;8122171;28;27428;-80
2023/02/03 07:58:44;;;;;;;;;;;;;;;;;;8122726;28;27580;-78
2023/02/03 08:02:45;;;;;;;;;;;;;;;;;;8121396;28;27278;-77
2023/02/03 08:06:45;;;;;;;;;;;;;;;;;;8062807;28;1744244;-80
2023/02/03 08:10:45;;;;;;;;;;;;;;;;;;8122752;28;28248;-79
2023/02/03 08:14:45;;;;;;;;;;;;;;;;;;8123545;28;27637;-78
2023/02/03 08:18:45;;;;;;;;;;;;;;;;;;8118380;28;27559;-77
2023/02/03 08:22:45;;;;;;;;;;;;;;;;;;8122028;28;27543;-78
2023/02/03 08:26:46;;;;;;;;;;;;;;;;;;8117851;28;28256;-77
2023/02/03 08:30:46;;;;;;;;;;;;;;;;;;8120776;28;27531;-77
2023/02/03 08:34:46;;;;;;;;;;;;;;;;;;8127658;28;27240;-78
2023/02/03 08:38:46;;;;;;;;;;;;;;;;;;8121981;28;28388;-77
2023/02/03 08:42:46;;;;;;;;;;;;;;;;;;8121573;28;27326;-78
2023/02/03 08:46:46;;;;;;;;;;;;;;;;;;8122105;28;27360;-77
2023/02/03 08:50:51;;;;;;;;;;;;;;;;;;8117607;28;27342;-77
2023/02/03 08:54:51;;;;;;;;;;;;;;;;;;8121816;28;27446;-77
2023/02/03 08:58:51;;;;;;;;;;;;;;;;;;8120900;28;29624;-79
2023/02/03 09:02:51;;;;;;;;;;;;;;;;;;8121317;28;28791;-77
2023/02/03 09:06:53;;;;;;;;;;;;;;;;;;8119843;28;28987;-77
2023/02/03 09:10:53;;;;;;;;;;;;;;;;;;8121877;28;27411;-77
2023/02/03 09:14:53;;;;;;;;;;;;;;;;;;8122759;28;27261;-78
2023/02/03 09:18:53;;;;;;;;;;;;;;;;;;8119137;28;27271;-78
2023/02/03 09:22:53;;;;;;;;;;;;;;;;;;8117840;28;28851;-77
2023/02/03 09:26:54;;;;;;;;;;;;;;;;;;8116936;28;27491;-78
2023/02/03 09:30:54;;;;;;;;;;;;;;;;;;8129277;28;27211;-78
2023/02/03 09:34:54;;;;;;;;;;;;;;;;;;8121358;28;27144;-78
2023/02/03 09:38:55;;;;;;;;;;;;;;;;;;8120733;28;27291;-77
2023/02/03 09:42:55;;;;;;;;;;;;;;;;;;8118181;28;28021;-78
2023/02/03 09:46:55;;;;;;;;;;;;;;;;;;8123659;28;27930;-77
2023/02/03 09:50:55;;;;;;;;;;;;;;;;;;8120980;28;27402;-78
2023/02/03 09:54:55;;;;;;;;;;;;;;;;;;8125669;28;28535;-76
2023/02/03 09:58:55;;;;;;;;;;;;;;;;;;8125909;28;28750;-78
2023/02/03 10:02:55;;;;;;;;;;;;;;;;;;8119053;28;28947;-79
2023/02/03 10:06:55;;;;;;;;;;;;;;;;;;8122279;28;27899;-78
2023/02/03 10:11:08;;;;;;;;;;;;;;;;;;8114812;28;28114;-78
2023/02/03 10:15:08;;;;;;;;;;;;;;;;;;8118161;28;27761;-78
2023/02/03 10:19:08;;;;;;;;;;;;;;;;;;8122291;28;28543;-77
2023/02/03 10:23:08;;;;;;;;;;;;;;;;;;8128505;28;27262;-77
2023/02/03 10:27:08;;;;;;;;;;;;;;;;;;8118993;28;27689;-78
2023/02/03 10:31:08;;;;;;;;;;;;;;;;;;8124231;28;27910;-78
2023/02/03 10:35:08;;;;;;;;;;;;;;;;;;8126515;28;27606;-79
2023/02/03 10:39:09;;;;;;;;;;;;;;;;;;8124485;28;28027;-78
2023/02/03 10:47:28;;;;;;;;;;;;;;;;;;8118269;28;27612;-77
2023/02/03 10:51:31;;;;;;;;;;;;;;;;;;8121062;28;27266;-78
2023/02/03 10:55:31;;;;;;;;;;;;;;;;;;8119197;28;27404;-76
2023/02/03 10:59:31;;;;;;;;;;;;;;;;;;8121973;28;27869;-78
2023/02/03 11:03:31;;;;;;;;;;;;;;;;;;8118737;28;28788;-77
2023/02/03 11:07:31;;;;;;;;;;;;;;;;;;8115260;28;28009;-75
2023/02/03 11:11:33;;;;;;;;;;;;;;;;;;8120309;28;27250;-77
2023/02/03 11:15:33;;;;;;;;;;;;;;;;;;8117887;28;29027;-78
2023/02/03 11:19:33;;;;;;;;;;;;;;;;;;8116179;28;28469;-78
2023/02/03 11:23:33;;;;;;;;;;;;;;;;;;8121488;28;27612;-78
2023/02/03 11:27:33;;;;;;;;;;;;;;;;;;8119298;28;28083;-79
2023/02/03 11:31:33;;;;;;;;;;;;;;;;;;8124977;28;27273;-79
2023/02/03 11:35:36;;;;;;;;;;;;;;;;;;8122170;28;28861;-77
2023/02/03 11:39:37;;;;;;;;;;;;;;;;;;8121828;28;27429;-76
2023/02/03 11:43:38;;;;;;;;;;;;;;;;;;8121528;28;27588;-77
2023/02/03 11:47:38;;;;;;;;;;;;;;;;;;8122077;28;27668;-77
2023/02/03 11:51:39;;;;;;;;;;;;;;;;;;8122030;28;27846;-77
2023/02/03 11:55:39;;;;;;;;;;;;;;;;;;8126180;28;28565;-78
2023/02/03 11:59:39;;;;;;;;;;;;;;;;;;8126002;28;27488;-79
2023/02/03 12:03:39;;;;;;;;;;;;;;;;;;8125612;28;27288;-79
2023/02/03 12:07:39;;;;;;;;;;;;;;;;;;8125817;28;27496;-78
2023/02/03 12:11:39;;;;;;;;;;;;;;;;;;8124967;28;27935;-80
2023/02/03 12:15:39;;;;;;;;;;;;;;;;;;8128462;28;28461;-80
2023/02/03 12:19:39;;;;;;;;;;;;;;;;;;8127610;28;28871;-78
2023/02/03 12:23:39;;;;;;;;;;;;;;;;;;8122042;28;27165;-79
2023/02/03 12:27:39;;;;;;;;;;;;;;;;;;8127035;28;27926;-75
2023/02/03 12:31:39;;;;;;;;;;;;;;;;;;8125856;28;27257;-77
2023/02/03 12:35:39;;;;;;;;;;;;;;;;;;8129122;28;28841;-79
2023/02/03 12:39:39;;;;;;;;;;;;;;;;;;8126028;28;28105;-80
2023/02/03 12:43:40;;;;;;;;;;;;;;;;;;8125441;28;28020;-79
2023/02/03 12:47:40;;;;;;;;;;;;;;;;;;8121557;28;28084;-78
2023/02/03 12:51:40;;;;;;;;;;;;;;;;;;8119925;28;27402;-79
2023/02/03 12:55:40;;;;;;;;;;;;;;;;;;8123952;28;29685;-77
2023/02/03 12:59:40;;;;;;;;;;;;;;;;;;8124624;28;27308;-78
2023/02/03 13:03:40;;;;;;;;;;;;;;;;;;8122910;28;28100;-78
2023/02/03 13:07:40;;;;;;;;;;;;;;;;;;8125559;28;27971;-79
2023/02/03 13:11:40;;;;;;;;;;;;;;;;;;8124563;28;27919;-79
2023/02/03 13:15:40;;;;;;;;;;;;;;;;;;8119364;28;27963;-80
2023/02/03 13:19:41;;;;;;;;;;;;;;;;;;8120365;28;28193;-78
2023/02/03 13:23:43;;;;;;;;;;;;;;;;;;8119485;28;28912;-78
2023/02/03 13:27:43;;;;;;;;;;;;;;;;;;8119010;28;28883;-76
2023/02/03 13:31:43;;;;;;;;;;;;;;;;;;8118227;28;27549;-78
2023/02/03 13:35:43;;;;;;;;;;;;;;;;;;8112936;28;29075;-79
2023/02/03 13:39:43;;;;;;;;;;;;;;;;;;8122299;28;28178;-76
2023/02/03 13:43:43;;;;;;;;;;;;;;;;;;8121126;28;27688;-78
2023/02/03 13:47:43;;;;;;;;;;;;;;;;;;8118617;28;27655;-78
2023/02/03 13:51:44;;;;;;;;;;;;;;;;;;8122854;28;29557;-76
2023/02/03 13:55:45;;;;;;;;;;;;;;;;;;8123955;28;27412;-78
2023/02/03 13:59:45;;;;;;;;;;;;;;;;;;8122424;28;27459;-79
2023/02/03 14:03:45;;;;;;;;;;;;;;;;;;8117394;28;28132;-78
2023/02/03 14:07:45;;;;;;;;;;;;;;;;;;8116306;28;27355;-79
2023/02/03 14:11:45;;;;;;;;;;;;;;;;;;8119183;28;28777;-77
2023/02/03 14:15:47;;;;;;;;;;;;;;;;;;8117441;28;28073;-79
2023/02/03 14:19:47;;;;;;;;;;;;;;;;;;8113892;28;28826;-77
2023/02/03 14:23:47;;;;;;;;;;;;;;;;;;8116148;28;28013;-78
2023/02/03 14:27:47;;;;;;;;;;;;;;;;;;8116662;28;28188;-78
2023/02/03 14:31:48;;;;;;;;;;;;;;;;;;8122054;28;27598;-77
2023/02/03 14:35:48;;;;;;;;;;;;;;;;;;8124405;28;28503;-78
2023/02/03 14:39:53;;;;;;;;;;;;;;;;;;8115071;28;27398;-78
2023/02/03 14:43:54;;;;;;;;;;;;;;;;;;8116895;28;29071;-77
2023/02/03 14:47:54;;;;;;;;;;;;;;;;;;8121804;28;27667;-78
2023/02/03 14:51:54;;;;;;;;;;;;;;;;;;8121934;28;27853;-77
2023/02/03 14:55:54;;;;;;;;;;;;;;;;;;8106316;28;28914;-77
2023/02/03 14:59:55;;;;;;;;;;;;;;;;;;8116125;28;28513;-77
2023/02/03 15:03:55;;;;;;;;;;;;;;;;;;8104779;28;28262;-78
2023/02/03 15:07:55;;;;;;;;;;;;;;;;;;8119391;28;27519;-78
2023/02/03 15:11:55;;;;;;;;;;;;;;;;;;8122909;28;28164;-76
2023/02/03 15:15:55;;;;;;;;;;;;;;;;;;8126207;28;28423;-78
2023/02/03 15:19:55;;;;;;;;;;;;;;;;;;8122617;28;27369;-78
2023/02/03 15:23:55;;;;;;;;;;;;;;;;;;8126317;28;28182;-78
2023/02/03 15:27:55;;;;;;;;;;;;;;;;;;8124754;28;27980;-78
2023/02/03 15:31:55;;;;;;;;;;;;;;;;;;8121778;28;27336;-78
2023/02/03 15:35:56;;;;;;;;;;;;;;;;;;8127750;28;27870;-78
2023/02/03 15:39:56;;;;;;;;;;;;;;;;;;8127901;28;28759;-79
2023/02/03 15:43:56;;;;;;;;;;;;;;;;;;8125746;28;27847;-80
2023/02/03 15:47:56;;;;;;;;;;;;;;;;;;8103726;28;28747;-79
2023/02/03 15:51:56;;;;;;;;;;;;;;;;;;8123217;28;27307;-77
2023/02/03 15:55:56;;;;;;;;;;;;;;;;;;8118177;28;29059;-80
2023/02/03 15:59:56;;;;;;;;;;;;;;;;;;8124517;28;30323;-77
2023/02/03 16:03:56;;;;;;;;;;;;;;;;;;8106327;28;28438;-78
2023/02/03 16:07:56;;;;;;;;;;;;;;;;;;8118461;28;27913;-76
2023/02/03 16:11:56;;;;;;;;;;;;;;;;;;8113833;28;29108;-78
2023/02/03 16:15:57;;;;;;;;;;;;;;;;;;8119340;28;28573;-77
2023/02/03 16:19:57;;;;;;;;;;;;;;;;;;8120536;28;28584;-78
2023/02/03 16:23:57;;;;;;;;;;;;;;;;;;8120638;28;28873;-77
2023/02/03 16:52:05;;;;;;;;;;;;;;;;;;8432015;27;27383;-79
2023/02/03 16:56:05;;;;;;;;;;;;;;;;;;8429213;27;27269;-79
2023/02/03 17:00:07;;;;;;;;;;;;;;;;;;8430011;27;27601;-79
2023/02/03 17:04:09;;;;;;;;;;;;;;;;;;8410592;27;29029;-78
2023/02/03 17:08:09;;;;;;;;;;;;;;;;;;8417613;27;28919;-78
2023/02/03 17:12:10;;;;;;;;;;;;;;;;;;8403825;27;28727;-78
2023/02/03 17:16:10;;;;;;;;;;;;;;;;;;8427750;27;27352;-80
2023/02/03 17:20:10;;;;;;;;;;;;;;;;;;8406992;27;29021;-79
2023/02/03 17:24:11;;;;;;;;;;;;;;;;;;8421863;27;28374;-79
2023/02/03 17:28:12;;;;;;;;;;;;;;;;;;8404965;27;28880;-79
2023/02/03 17:32:14;;;;;;;;;;;;;;;;;;8425555;27;27638;-78
2023/02/03 17:36:14;;;;;;;;;;;;;;;;;;8420300;27;27334;-78
2023/02/03 17:40:14;;;;;;;;;;;;;;;;;;8433236;27;27497;-78
2023/02/03 17:44:14;;;;;;;;;;;;;;;;;;8431200;27;28767;-78
2023/02/03 17:48:14;;;;;;;;;;;;;;;;;;8426278;27;27790;-78
2023/02/03 17:52:14;;;;;;;;;;;;;;;;;;8406198;27;29717;-79
2023/02/03 17:56:14;;;;;;;;;;;;;;;;;;8409667;28;28360;-78
2023/02/03 18:00:14;;;;;;;;;;;;;;;;;;8389288;28;29970;-79
2023/02/03 18:04:15;;;;;;;;;;;;;;;;;;8412092;28;29049;-80
2023/02/03 18:08:15;;;;;;;;;;;;;;;;;;8411781;27;27382;-81
2023/02/03 18:12:15;;;;;;;;;;;;;;;;;;8413518;28;27736;-80
2023/02/03 18:16:15;;;;;;;;;;;;;;;;;;8404292;28;28935;-77
2023/02/03 18:20:15;;;;;;;;;;;;;;;;;;8385908;28;28852;-80
2023/02/03 18:24:17;;;;;;;;;;;;;;;;;;8407154;28;28110;-81
2023/02/03 18:28:17;;;;;;;;;;;;;;;;;;8401800;27;27298;-79
2023/02/03 18:32:18;;;;;;;;;;;;;;;;;;8407293;27;27355;-78
2023/02/03 18:36:18;;;;;;;;;;;;;;;;;;8409036;27;27334;-78
2023/02/03 18:40:18;;;;;;;;;;;;;;;;;;8412583;28;27320;-81
2023/02/03 18:44:19;;;;;;;;;;;;;;;;;;8412238;28;28535;-79
2023/02/03 18:48:19;;;;;;;;;;;;;;;;;;8399184;28;28381;-80
2023/02/03 18:52:19;;;;;;;;;;;;;;;;;;8404420;28;27410;-80
2023/02/03 18:56:19;;;;;;;;;;;;;;;;;;8407086;28;27179;-79
2023/02/03 19:00:19;;;;;;;;;;;;;;;;;;8406370;28;27166;-79
2023/02/03 19:04:19;;;;;;;;;;;;;;;;;;8398728;28;27122;-80
2023/02/03 19:08:19;;;;;;;;;;;;;;;;;;8387041;28;28712;-79
2023/02/03 19:12:20;;;;;;;;;;;;;;;;;;8400004;28;27553;-79
2023/02/03 19:16:20;;;;;;;;;;;;;;;;;;8390527;28;27522;-81
2023/02/03 19:20:20;;;;;;;;;;;;;;;;;;8405278;28;27765;-79
2023/02/03 19:24:20;;;;;;;;;;;;;;;;;;8397024;28;27768;-80
2023/02/03 19:28:20;;;;;;;;;;;;;;;;;;8401213;28;27337;-80
2023/02/03 19:32:20;;;;;;;;;;;;;;;;;;8405902;28;27532;-78
2023/02/03 19:36:21;;;;;;;;;;;;;;;;;;8402637;28;27445;-79
2023/02/03 19:40:21;;;;;;;;;;;;;;;;;;8402075;28;28570;-79
2023/02/03 19:44:21;;;;;;;;;;;;;;;;;;8413302;28;28216;-80
2023/02/03 19:48:21;;;;;;;;;;;;;;;;;;8399316;28;27564;-78
2023/02/03 19:52:21;;;;;;;;;;;;;;;;;;8380241;28;28819;-79
2023/02/03 19:56:21;;;;;;;;;;;;;;;;;;8390119;28;28929;-80
2023/02/03 20:00:21;;;;;;;;;;;;;;;;;;8404134;28;27460;-79
2023/02/03 20:04:21;;;;;;;;;;;;;;;;;;8400278;28;27597;-78
2023/02/03 20:08:21;;;;;;;;;;;;;;;;;;8371617;28;28585;-76
2023/02/03 20:12:22;;;;;;;;;;;;;;;;;;8377431;28;28550;-79
2023/02/03 20:16:22;;;;;;;;;;;;;;;;;;8399936;28;27338;-79
2023/02/03 20:20:22;;;;;;;;;;;;;;;;;;8400599;28;27342;-78
2023/02/03 20:24:22;;;;;;;;;;;;;;;;;;8402168;28;27758;-79
2023/02/03 20:28:22;;;;;;;;;;;;;;;;;;8404711;28;27229;-79
2023/02/03 20:32:23;;;;;;;;;;;;;;;;;;8382524;28;28763;-78
2023/02/03 20:36:23;;;;;;;;;;;;;;;;;;8386975;28;28666;-80
2023/02/03 20:40:23;;;;;;;;;;;;;;;;;;8395538;28;27985;-77
2023/02/03 20:44:23;;;;;;;;;;;;;;;;;;8396188;28;27762;-77
2023/02/03 20:48:24;;;;;;;;;;;;;;;;;;8401368;28;27808;-78
2023/02/03 20:52:24;;;;;;;;;;;;;;;;;;8381549;28;28821;-78
2023/02/03 20:56:24;;;;;;;;;;;;;;;;;;8375822;28;28826;-79
2023/02/03 21:00:24;;;;;;;;;;;;;;;;;;8389667;28;28494;-79
2023/02/03 21:08:43;;;;;;;;;;;;;;;;;;8404724;28;27240;-80
2023/02/03 21:12:43;;;;;;;;;;;;;;;;;;8403841;28;27688;-78
2023/02/03 21:16:43;;;;;;;;;;;;;;;;;;8400152;28;27157;-79
2023/02/03 21:20:44;;;;;;;;;;;;;;;;;;8400449;28;27388;-80
2023/02/03 21:24:44;;;;;;;;;;;;;;;;;;8403262;28;27899;-80
2023/02/03 21:28:44;;;;;;;;;;;;;;;;;;8401999;28;27179;-81
2023/02/03 21:32:44;;;;;;;;;;;;;;;;;;8383646;28;29817;-78
2023/02/03 21:36:45;;;;;;;;;;;;;;;;;;8411562;28;28003;-78
2023/02/03 21:40:45;;;;;;;;;;;;;;;;;;8409070;28;27137;-82
2023/02/03 21:44:45;;;;;;;;;;;;;;;;;;8410775;28;27423;-82
2023/02/03 21:48:46;;;;;;;;;;;;;;;;;;8388467;27;28816;-80
2023/02/03 21:52:47;;;;;;;;;;;;;;;;;;8414690;28;27491;-80
2023/02/03 21:56:49;;;;;;;;;;;;;;;;;;8411578;28;28188;-80
2023/02/03 22:00:49;;;;;;;;;;;;;;;;;;8402413;28;27387;-81
2023/02/03 22:04:49;;;;;;;;;;;;;;;;;;8407770;28;27708;-79
2023/02/03 22:08:49;;;;;;;;;;;;;;;;;;8408401;28;27391;-79
2023/02/03 22:12:49;;;;;;;;;;;;;;;;;;8408755;28;27713;-79
2023/02/03 22:16:49;;;;;;;;;;;;;;;;;;8396557;28;27686;-78
2023/02/03 22:20:49;;;;;;;;;;;;;;;;;;8406737;28;27395;-79
2023/02/03 22:24:49;;;;;;;;;;;;;;;;;;8406698;28;27973;-80
2023/02/03 22:28:49;;;;;;;;;;;;;;;;;;8415143;27;27510;-79
2023/02/03 22:32:50;;;;;;;;;;;;;;;;;;8387455;28;29657;-78
2023/02/03 22:36:50;;;;;;;;;;;;;;;;;;8411202;28;27532;-80
2023/02/03 22:40:50;;;;;;;;;;;;;;;;;;8402094;28;27535;-79
2023/02/03 22:44:50;;;;;;;;;;;;;;;;;;8397312;28;27090;-80
2023/02/03 22:48:50;;;;;;;;;;;;;;;;;;8379865;28;28768;-78
2023/02/03 22:52:52;;;;;;;;;;;;;;;;;;8404879;28;27453;-78
2023/02/03 22:56:53;;;;;;;;;;;;;;;;;;8398473;28;28026;-78
2023/02/03 23:00:53;;;;;;;;;;;;;;;;;;8401401;28;27105;-79
2023/02/03 23:04:53;;;;;;;;;;;;;;;;;;8393783;28;27275;-78
2023/02/03 23:08:54;;;;;;;;;;;;;;;;;;8396590;28;27389;-79
2023/02/03 23:12:54;;;;;;;;;;;;;;;;;;8404524;28;27209;-81
2023/02/03 23:16:54;;;;;;;;;;;;;;;;;;8401623;28;27640;-79
2023/02/03 23:20:55;;;;;;;;;;;;;;;;;;8399918;28;27158;-81
2023/02/03 23:24:55;;;;;;;;;;;;;;;;;;8401436;27;27098;-79
2023/02/03 23:28:55;;;;;;;;;;;;;;;;;;8401093;28;27091;-80
2023/02/03 23:32:55;;;;;;;;;;;;;;;;;;8398110;28;27503;-80
2023/02/03 23:36:55;;;;;;;;;;;;;;;;;;8383694;28;28901;-79
2023/02/03 23:40:55;;;;;;;;;;;;;;;;;;8396303;28;27594;-80
2023/02/03 23:44:56;;;;;;;;;;;;;;;;;;8376784;28;28614;-80
2023/02/03 23:48:56;;;;;;;;;;;;;;;;;;8394648;28;27793;-78
2023/02/03 23:52:56;;;;;;;;;;;;;;;;;;8391409;28;27856;-80
2023/02/03 23:56:56;;;;;;;;;;;;;;;;;;8407094;28;28108;-78
